createdAt,value
2022-10-18T00:00:45.996Z,17.67
2022-10-18T00:03:36.279Z,17.74
2022-10-18T00:06:09.421Z,17.75
2022-10-18T00:08:41.129Z,17.77
2022-10-18T00:11:11.586Z,17.72
2022-10-18T00:13:41.511Z,17.64
2022-10-18T00:16:13.943Z,17.64
2022-10-18T00:18:44.414Z,17.55
2022-10-18T00:21:16.451Z,17.55
2022-10-18T00:23:48.611Z,17.63
2022-10-18T00:26:20.330Z,17.65
2022-10-18T00:28:53.246Z,17.67
2022-10-18T00:31:25.781Z,17.73
2022-10-18T00:33:56.654Z,17.76
2022-10-18T00:36:27.133Z,17.79
2022-10-18T00:38:58.457Z,17.83
2022-10-18T00:41:30.874Z,17.82
2022-10-18T00:44:02.359Z,17.74
2022-10-18T00:46:34.262Z,17.70
2022-10-18T00:49:06.230Z,17.70
2022-10-18T00:51:41.510Z,17.71
2022-10-18T00:54:13.200Z,17.65
2022-10-18T00:56:45.069Z,17.62
2022-10-18T00:59:16.918Z,17.67
2022-10-18T01:01:47.471Z,17.63
2022-10-18T01:04:18.580Z,17.70
2022-10-18T01:09:41.417Z,17.86
2022-10-18T01:12:23.771Z,17.83
2022-10-18T01:15:05.177Z,17.68
2022-10-18T01:17:42.045Z,17.53
2022-10-18T01:20:35.574Z,17.63
2022-10-18T01:23:10.028Z,17.51
2022-10-18T01:25:51.074Z,17.55
2022-10-18T01:28:40.302Z,17.67
2022-10-18T01:31:16.914Z,17.54
2022-10-18T01:33:52.217Z,17.45
2022-10-18T01:36:25.218Z,17.36
2022-10-18T01:38:59.350Z,17.33
2022-10-18T01:41:30.519Z,17.32
2022-10-18T01:44:03.581Z,17.32
2022-10-18T01:46:36.366Z,17.34
2022-10-18T01:49:06.759Z,17.28
2022-10-18T01:51:36.768Z,17.28
2022-10-18T01:54:07.038Z,17.30
2022-10-18T01:56:44.411Z,17.33
2022-10-18T01:59:26.217Z,17.17
2022-10-18T02:02:04.473Z,17.06
2022-10-18T02:04:43.935Z,16.78
2022-10-18T02:07:22.158Z,16.81
2022-10-18T02:10:02.730Z,16.64
2022-10-18T02:12:35.342Z,16.21
2022-10-18T02:15:10.270Z,15.98
2022-10-18T02:17:42.761Z,15.83
2022-10-18T02:20:15.010Z,15.72
2022-10-18T02:22:46.424Z,15.64
2022-10-18T02:25:21.832Z,15.85
2022-10-18T02:27:51.894Z,15.96
2022-10-18T02:30:24.659Z,16.19
2022-10-18T02:33:03.617Z,16.20
2022-10-18T02:35:39.299Z,15.74
2022-10-18T02:38:10.021Z,15.81
2022-10-18T02:40:40.129Z,15.84
2022-10-18T02:43:09.834Z,15.95
2022-10-18T02:50:06.933Z,16.39
2022-10-18T02:52:37.224Z,16.16
2022-10-18T02:55:08.518Z,16.04
2022-10-18T02:57:38.653Z,15.87
2022-10-18T03:00:09.346Z,15.88
2022-10-18T03:02:39.341Z,15.89
2022-10-18T03:05:10.902Z,15.93
2022-10-18T03:07:40.834Z,15.95
2022-10-18T03:10:11.278Z,15.96
2022-10-18T03:12:41.988Z,15.98
2022-10-18T03:15:12.317Z,16.00
2022-10-18T03:18:00.519Z,16.02
2022-10-18T03:20:32.360Z,16.06
2022-10-18T03:23:02.001Z,16.05
2022-10-18T03:25:31.564Z,16.83
2022-10-18T03:28:01.286Z,16.29
2022-10-18T03:30:30.793Z,16.91
2022-10-18T03:33:00.474Z,16.33
2022-10-18T03:35:31.952Z,16.27
2022-10-18T03:38:01.609Z,16.20
2022-10-18T03:43:06.155Z,16.12
2022-10-18T03:45:35.688Z,16.85
2022-10-18T03:48:05.936Z,16.31
2022-10-18T03:50:37.543Z,16.23
2022-10-18T03:53:07.688Z,16.20
2022-10-18T03:55:39.169Z,16.24
2022-10-18T03:58:08.992Z,16.20
2022-10-18T04:00:38.990Z,16.15
2022-10-18T04:03:08.658Z,16.10
2022-10-18T04:05:39.693Z,16.84
2022-10-18T04:08:09.411Z,16.32
2022-10-18T04:10:40.285Z,16.23
2022-10-18T04:13:10.549Z,16.07
2022-10-18T04:15:40.790Z,16.01
2022-10-18T04:18:10.620Z,15.89
2022-10-18T04:20:42.153Z,15.96
2022-10-18T04:23:12.148Z,16.03
2022-10-18T04:28:13.660Z,16.09
2022-10-18T04:30:43.651Z,16.14
2022-10-18T04:33:13.179Z,16.12
2022-10-18T04:35:44.449Z,16.54
2022-10-18T04:38:14.665Z,16.00
2022-10-18T04:40:44.741Z,15.99
2022-10-18T04:43:14.914Z,15.98
2022-10-18T04:45:47.402Z,16.07
2022-10-18T04:48:17.503Z,16.00
2022-10-18T04:50:51.703Z,16.13
2022-10-18T04:53:21.425Z,16.08
2022-10-18T04:55:52.093Z,16.07
2022-10-18T04:58:22.231Z,16.03
2022-10-18T05:00:52.461Z,16.13
2022-10-18T05:03:22.366Z,16.25
2022-10-18T05:06:03.530Z,16.43
2022-10-18T05:08:36.740Z,16.50
2022-10-18T05:11:12.752Z,16.40
2022-10-18T05:14:32.382Z,17.40
2022-10-18T05:17:02.980Z,16.95
2022-10-18T05:19:32.997Z,16.89
2022-10-18T05:22:05.003Z,17.00
2022-10-18T05:24:34.678Z,16.92
2022-10-18T05:27:04.814Z,17.00
2022-10-18T05:29:35.503Z,17.12
2022-10-18T05:32:45.930Z,17.22
2022-10-18T05:35:25.355Z,17.45
2022-10-18T05:38:00.046Z,17.60
2022-10-18T05:40:44.797Z,17.68
2022-10-18T05:43:14.970Z,17.90
2022-10-18T05:45:49.755Z,18.10
2022-10-18T05:48:20.343Z,18.11
2022-10-18T05:50:50.151Z,18.34
2022-10-18T05:53:37.738Z,18.55
2022-10-18T05:56:08.995Z,18.74
2022-10-18T05:58:39.197Z,18.82
2022-10-18T06:01:08.749Z,19.61
2022-10-18T06:03:39.288Z,19.26
2022-10-18T06:06:10.539Z,19.20
2022-10-18T06:08:43.319Z,19.31
2022-10-18T06:26:03.054Z,20.46
2022-10-18T06:28:36.975Z,20.36
2022-10-18T06:31:08.304Z,20.31
2022-10-18T06:36:12.180Z,20.36
2022-10-18T06:38:43.421Z,20.44
2022-10-18T06:41:15.100Z,20.59
2022-10-18T06:43:49.313Z,20.49
2022-10-18T06:46:19.231Z,20.57
2022-10-18T06:48:50.879Z,20.87
2022-10-18T06:51:21.287Z,21.03
2022-10-18T06:54:06.205Z,21.14
2022-10-18T06:56:43.732Z,21.34
2022-10-18T06:59:24.358Z,21.65
2022-10-18T07:02:17.039Z,22.41
2022-10-18T07:04:47.285Z,22.11
2022-10-18T07:07:16.595Z,22.89
2022-10-18T07:10:25.694Z,22.76
2022-10-18T07:13:13.659Z,22.81
2022-10-18T07:15:48.591Z,22.85
2022-10-18T07:19:04.050Z,23.39
2022-10-18T07:21:52.793Z,23.12
2022-10-18T07:24:25.015Z,23.26
2022-10-18T07:26:55.744Z,23.46
2022-10-18T07:29:28.410Z,23.67
2022-10-18T07:32:01.008Z,23.90
2022-10-18T07:34:31.565Z,23.84
2022-10-18T07:37:03.837Z,23.98
2022-10-18T07:39:33.929Z,24.17
2022-10-18T07:42:04.331Z,24.28
2022-10-18T07:44:36.125Z,24.41
2022-10-18T07:47:06.342Z,24.53
2022-10-18T07:49:35.891Z,25.59
2022-10-18T07:52:06.458Z,24.99
2022-10-18T07:54:36.263Z,25.14
2022-10-18T07:57:06.763Z,25.20
2022-10-18T07:59:39.577Z,25.30
2022-10-18T08:02:10.995Z,25.09
2022-10-18T08:04:40.795Z,25.22
2022-10-18T08:07:11.253Z,25.50
2022-10-18T08:09:41.722Z,25.64
2022-10-18T08:12:12.732Z,25.75
2022-10-18T08:14:45.139Z,25.78
2022-10-18T08:17:15.454Z,25.65
2022-10-18T08:19:52.969Z,25.65
2022-10-18T08:22:35.203Z,25.82
2022-10-18T08:25:06.060Z,26.00
2022-10-18T08:32:16.259Z,26.49
2022-10-18T08:35:38.691Z,26.90
2022-10-18T08:38:16.600Z,26.67
2022-10-18T08:40:49.151Z,26.39
2022-10-18T08:43:28.111Z,26.36
2022-10-18T08:45:58.950Z,26.49
2022-10-18T08:48:37.269Z,26.68
2022-10-18T08:51:21.898Z,26.86
2022-10-18T08:53:58.691Z,26.98
2022-10-18T08:56:29.279Z,26.97
2022-10-18T08:58:59.121Z,27.27
2022-10-18T09:01:38.506Z,27.52
2022-10-18T09:04:34.887Z,27.56
2022-10-18T09:11:20.863Z,27.71
2022-10-18T09:14:34.838Z,28.29
2022-10-18T09:17:24.024Z,28.34
2022-10-18T09:20:09.758Z,28.37
2022-10-18T09:22:50.834Z,28.37
2022-10-18T09:25:23.000Z,28.39
2022-10-18T09:27:58.536Z,28.95
2022-10-18T09:30:46.233Z,30.09
2022-10-18T09:33:38.602Z,32.31
2022-10-18T09:36:12.339Z,34.14
2022-10-18T09:42:36.554Z,38.26
2022-10-18T09:45:17.132Z,39.13
2022-10-18T09:47:54.046Z,40.41
2022-10-18T09:50:27.553Z,40.64
2022-10-18T09:53:06.734Z,41.41
2022-10-18T09:55:41.173Z,41.72
2022-10-18T09:58:15.536Z,41.10
2022-10-18T10:00:50.392Z,42.27
2022-10-18T10:03:20.535Z,43.02
2022-10-18T10:06:30.566Z,44.01
2022-10-18T10:12:32.839Z,44.97
2022-10-18T10:16:07.135Z,44.43
2022-10-18T10:18:55.735Z,44.31
2022-10-18T10:21:26.747Z,43.81
2022-10-18T10:24:00.431Z,44.29
2022-10-18T10:26:35.203Z,45.06
2022-10-18T10:29:13.114Z,44.27
2022-10-18T10:31:48.522Z,43.89
2022-10-18T10:34:22.069Z,43.09
2022-10-18T10:36:53.611Z,43.24
2022-10-18T10:39:25.321Z,43.63
2022-10-18T10:41:59.590Z,43.77
2022-10-18T10:44:31.969Z,42.27
2022-10-18T10:47:02.222Z,41.97
2022-10-18T10:49:45.521Z,43.22
2022-10-18T10:52:27.221Z,42.66
2022-10-18T10:55:34.069Z,42.91
2022-10-18T10:57:54.804Z,44.06
2022-10-18T11:00:45.911Z,43.81
2022-10-18T11:03:28.658Z,43.83
2022-10-18T11:06:01.194Z,43.70
2022-10-18T11:08:37.223Z,44.47
2022-10-18T11:11:20.606Z,44.55
2022-10-18T11:14:20.932Z,45.57
2022-10-18T11:16:58.271Z,44.12
2022-10-18T11:19:39.124Z,43.08
2022-10-18T11:22:15.507Z,43.15
2022-10-18T11:24:46.213Z,43.27
2022-10-18T11:27:26.718Z,43.80
2022-10-18T11:30:17.133Z,43.98
2022-10-18T11:32:55.796Z,43.38
2022-10-18T11:35:37.296Z,42.84
2022-10-18T11:38:17.903Z,43.77
2022-10-18T11:40:59.620Z,43.72
2022-10-18T11:44:01.246Z,42.93
2022-10-18T11:46:44.436Z,42.89
2022-10-18T11:49:27.316Z,42.66
2022-10-18T11:52:10.397Z,42.77
2022-10-18T11:54:55.110Z,43.20
2022-10-18T11:57:43.554Z,43.12
2022-10-18T12:00:29.317Z,42.64
2022-10-18T12:03:16.509Z,41.85
2022-10-18T12:05:48.991Z,42.14
2022-10-18T12:08:23.162Z,41.21
2022-10-18T12:11:04.987Z,41.64
2022-10-18T12:13:42.148Z,41.66
2022-10-18T12:16:12.854Z,41.46
2022-10-18T12:21:28.945Z,41.03
2022-10-18T12:24:03.014Z,40.91
2022-10-18T12:26:34.366Z,41.19
2022-10-18T12:29:14.632Z,40.57
2022-10-18T12:31:48.154Z,40.90
2022-10-18T12:34:31.023Z,40.29
2022-10-18T12:37:23.617Z,41.31
2022-10-18T12:40:15.504Z,41.10
2022-10-18T12:42:48.515Z,41.40
2022-10-18T12:45:27.758Z,40.59
2022-10-18T12:48:10.152Z,39.34
2022-10-18T12:50:44.104Z,40.15
2022-10-18T12:53:20.219Z,39.52
2022-10-18T12:55:54.144Z,39.55
2022-10-18T12:58:32.917Z,39.94
2022-10-18T13:01:13.841Z,38.69
2022-10-18T13:03:57.445Z,36.54
2022-10-18T13:07:11.425Z,35.97
2022-10-18T13:31:59.265Z,29.48
2022-10-18T13:34:35.563Z,28.78
2022-10-18T13:37:08.014Z,28.51
2022-10-18T13:39:39.972Z,28.33
2022-10-18T13:42:33.448Z,28.50
2022-10-18T13:45:46.960Z,28.27
2022-10-18T13:48:53.048Z,27.96
2022-10-18T13:51:57.311Z,27.70
2022-10-18T13:54:59.158Z,27.31
2022-10-18T13:57:47.666Z,26.74
2022-10-18T14:00:35.629Z,26.48
2022-10-18T14:03:56.166Z,26.90
2022-10-18T14:06:28.931Z,26.74
2022-10-18T14:09:09.734Z,26.68
2022-10-18T14:11:54.434Z,26.48
2022-10-18T14:14:34.388Z,26.28
2022-10-18T14:17:17.957Z,26.20
2022-10-18T14:19:52.552Z,26.15
2022-10-18T14:22:27.571Z,25.99
2022-10-18T14:24:59.349Z,25.76
2022-10-18T14:27:33.206Z,25.33
2022-10-18T14:30:12.515Z,25.63
2022-10-18T14:32:47.637Z,25.24
2022-10-18T14:35:37.120Z,24.98
2022-10-18T14:38:16.505Z,25.22
2022-10-18T14:40:46.736Z,24.84
2022-10-18T14:43:21.679Z,24.92
2022-10-18T14:45:51.322Z,24.76
2022-10-18T14:48:24.616Z,24.78
2022-10-18T14:51:00.811Z,24.71
2022-10-18T14:53:39.328Z,24.36
2022-10-18T14:56:10.278Z,23.96
2022-10-18T14:58:43.907Z,24.15
2022-10-18T15:01:18.666Z,23.80
2022-10-18T15:03:49.868Z,23.68
2022-10-18T15:06:21.439Z,23.66
2022-10-18T15:08:57.000Z,23.90
2022-10-18T15:11:28.198Z,23.65
2022-10-18T15:14:03.322Z,23.45
2022-10-18T15:16:34.542Z,23.28
2022-10-18T15:19:07.807Z,23.52
2022-10-18T15:21:37.654Z,23.24
2022-10-18T15:24:33.293Z,23.35
2022-10-18T15:27:11.090Z,23.09
2022-10-18T15:29:44.044Z,23.17
2022-10-18T15:32:21.817Z,23.18
2022-10-18T15:34:52.497Z,22.90
2022-10-18T15:37:34.670Z,22.85
2022-10-18T15:40:38.845Z,22.67
2022-10-18T15:43:45.579Z,22.98
2022-10-18T15:46:32.672Z,23.12
2022-10-18T15:49:56.861Z,23.31
2022-10-18T15:52:38.541Z,23.53
2022-10-18T15:55:48.145Z,23.16
2022-10-18T15:58:23.104Z,22.58
2022-10-18T16:00:55.621Z,22.37
2022-10-18T16:03:26.927Z,22.35
2022-10-18T16:06:01.118Z,22.23
2022-10-18T16:08:32.881Z,22.03
2022-10-18T16:11:05.284Z,22.13
2022-10-18T16:13:35.640Z,21.97
2022-10-18T16:16:04.925Z,22.72
2022-10-18T16:18:35.704Z,22.11
2022-10-18T16:21:05.851Z,21.82
2022-10-18T16:23:36.443Z,21.81
2022-10-18T16:26:09.353Z,21.71
2022-10-18T16:28:39.819Z,21.52
2022-10-18T16:31:10.174Z,21.55
2022-10-18T16:33:40.927Z,21.59
2022-10-18T16:36:16.297Z,21.62
2022-10-18T16:38:46.744Z,21.47
2022-10-18T16:41:18.857Z,21.50
2022-10-18T16:43:50.487Z,21.46
2022-10-18T16:46:23.757Z,21.35
2022-10-18T16:48:54.044Z,21.34
2022-10-18T16:51:24.320Z,21.34
2022-10-18T16:53:54.928Z,20.96
2022-10-18T16:56:28.834Z,21.16
2022-10-18T16:59:00.390Z,21.12
2022-10-18T17:01:30.900Z,21.07
2022-10-18T17:04:01.642Z,21.09
2022-10-18T17:06:32.847Z,21.83
2022-10-18T17:09:03.569Z,21.20
2022-10-18T17:11:34.910Z,21.07
2022-10-18T17:14:05.335Z,20.89
2022-10-18T17:16:37.565Z,20.92
2022-10-18T17:19:12.427Z,20.94
2022-10-18T17:21:42.119Z,20.85
2022-10-18T17:24:12.480Z,20.79
2022-10-18T17:26:43.672Z,20.83
2022-10-18T17:29:14.287Z,20.77
2022-10-18T17:31:44.436Z,20.73
2022-10-18T17:34:21.454Z,20.76
2022-10-18T17:36:52.230Z,20.79
2022-10-18T17:39:22.261Z,20.77
2022-10-18T17:41:55.832Z,20.61
2022-10-18T17:44:27.107Z,20.60
2022-10-18T17:46:56.807Z,20.52
2022-10-18T17:49:26.904Z,20.54
2022-10-18T17:51:57.763Z,20.46
2022-10-18T17:54:27.885Z,20.44
2022-10-18T17:57:01.459Z,20.47
2022-10-18T17:59:32.545Z,20.25
2022-10-18T18:02:02.836Z,20.22
2022-10-18T18:04:33.062Z,20.07
2022-10-18T18:07:04.802Z,19.77
2022-10-18T18:09:34.764Z,19.60
2022-10-18T18:12:06.493Z,19.72
2022-10-18T18:14:36.435Z,19.69
2022-10-18T18:17:06.400Z,19.74
2022-10-18T18:19:37.431Z,19.80
2022-10-18T18:22:07.490Z,19.83
2022-10-18T18:24:37.810Z,19.86
2022-10-18T18:27:09.515Z,19.87
2022-10-18T18:29:39.707Z,19.76
2022-10-18T18:32:09.766Z,19.75
2022-10-18T18:34:41.098Z,19.69
2022-10-18T18:37:11.494Z,19.75
2022-10-18T18:39:41.465Z,19.76
2022-10-18T18:42:12.878Z,19.81
2022-10-18T18:44:46.330Z,19.77
2022-10-18T18:47:16.095Z,19.79
2022-10-18T18:49:46.139Z,19.79
2022-10-18T18:52:15.785Z,19.73
2022-10-18T18:54:46.037Z,19.65
2022-10-18T18:57:18.692Z,19.70
2022-10-18T18:59:48.724Z,19.62
2022-10-18T19:02:18.421Z,19.53
2022-10-18T19:04:48.610Z,19.51
2022-10-18T19:07:18.340Z,19.46
2022-10-18T19:09:50.908Z,19.40
2022-10-18T19:12:22.026Z,19.40
2022-10-18T19:14:52.140Z,19.24
2022-10-18T19:17:22.281Z,19.19
2022-10-18T19:19:52.928Z,19.14
2022-10-18T19:22:22.846Z,19.09
2022-10-18T19:24:53.091Z,19.07
2022-10-18T19:27:24.568Z,19.09
2022-10-18T19:29:54.743Z,19.07
2022-10-18T19:32:24.722Z,18.94
2022-10-18T19:34:54.734Z,18.87
2022-10-18T19:37:24.804Z,18.83
2022-10-18T19:40:28.276Z,19.07
2022-10-18T19:43:02.762Z,18.87
2022-10-18T19:45:33.605Z,18.79
2022-10-18T19:48:03.513Z,18.74
2022-10-18T19:50:33.727Z,18.73
2022-10-18T19:53:03.776Z,18.67
2022-10-18T19:55:35.697Z,18.61
2022-10-18T19:58:07.012Z,18.62
2022-10-18T20:00:37.349Z,18.60
2022-10-18T20:03:07.086Z,18.59
2022-10-18T20:05:37.032Z,18.51
2022-10-18T20:08:07.275Z,18.53
2022-10-18T20:10:37.765Z,18.50
2022-10-18T20:13:09.598Z,18.50
2022-10-18T20:15:39.781Z,18.40
2022-10-18T20:18:09.101Z,19.14
2022-10-18T20:20:39.402Z,18.51
2022-10-18T20:23:09.308Z,18.44
2022-10-18T20:25:39.570Z,18.41
2022-10-18T20:28:10.959Z,18.40
2022-10-18T20:30:41.135Z,18.33
2022-10-18T20:33:11.047Z,18.29
2022-10-18T20:35:41.130Z,18.12
2022-10-18T20:38:10.686Z,17.87
2022-10-18T20:40:40.625Z,17.86
2022-10-18T20:43:11.728Z,17.95
2022-10-18T20:45:41.677Z,17.98
2022-10-18T20:48:11.386Z,17.93
2022-10-18T20:50:44.478Z,17.99
2022-10-18T20:53:14.285Z,17.92
2022-10-18T20:55:44.422Z,17.97
2022-10-18T20:58:15.579Z,18.08
2022-10-18T21:00:45.644Z,18.04
2022-10-18T21:03:15.295Z,17.93
2022-10-18T21:05:44.746Z,18.64
2022-10-18T21:08:14.419Z,17.96
2022-10-18T21:10:43.830Z,18.62
2022-10-18T21:13:14.935Z,17.92
2022-10-18T21:15:44.904Z,17.88
2022-10-18T21:18:14.378Z,18.65
2022-10-18T21:20:44.363Z,18.04
2022-10-18T21:23:14.001Z,17.81
2022-10-18T21:25:46.557Z,17.83
2022-10-18T21:28:18.183Z,17.82
2022-10-18T21:30:48.324Z,17.82
2022-10-18T21:33:18.436Z,17.86
2022-10-18T21:35:47.906Z,18.66
2022-10-18T21:38:17.750Z,18.11
2022-10-18T21:40:47.623Z,17.99
2022-10-18T21:43:18.781Z,17.98
2022-10-18T21:45:48.690Z,17.91
2022-10-18T21:48:18.343Z,17.87
2022-10-18T21:50:48.242Z,17.84
2022-10-18T21:53:17.946Z,17.74
2022-10-18T21:55:47.846Z,18.54
2022-10-18T21:58:18.925Z,17.93
2022-10-18T22:00:48.975Z,17.77
2022-10-18T22:03:18.780Z,17.76
2022-10-18T22:05:48.816Z,17.69
2022-10-18T22:08:18.579Z,17.72
2022-10-18T22:10:48.485Z,17.73
2022-10-18T22:13:19.550Z,17.77
2022-10-18T22:15:49.369Z,17.73
2022-10-18T22:18:19.267Z,17.76
2022-10-18T22:20:56.071Z,17.84
2022-10-18T22:23:25.634Z,17.59
2022-10-18T22:25:55.467Z,17.53
2022-10-18T22:28:26.585Z,17.61
2022-10-18T22:30:56.474Z,17.57
2022-10-18T22:33:26.205Z,17.61
2022-10-18T22:50:27.242Z,17.87
2022-10-18T22:52:57.275Z,17.78
2022-10-18T22:55:26.981Z,17.70
2022-10-18T22:58:14.638Z,17.76
2022-10-18T23:00:44.530Z,17.75
2022-10-18T23:03:15.985Z,17.74
2022-10-18T23:05:48.705Z,17.83
2022-10-18T23:08:18.182Z,17.78
2022-10-18T23:10:48.052Z,17.73
2022-10-18T23:13:17.618Z,17.75
2022-10-18T23:15:47.393Z,17.76
2022-10-18T23:18:17.942Z,17.77
2022-10-18T23:20:49.246Z,17.78
2022-10-18T23:23:18.801Z,17.76
2022-10-18T23:25:51.648Z,17.64
2022-10-18T23:28:22.124Z,17.66
2022-10-18T23:30:52.017Z,17.62
2022-10-18T23:33:21.543Z,17.61
2022-10-18T23:35:52.390Z,18.29
2022-10-18T23:38:21.949Z,17.55
2022-10-18T23:40:51.681Z,17.28
2022-10-18T23:43:21.194Z,17.13
2022-10-18T23:45:51.034Z,16.93
2022-10-18T23:48:20.714Z,16.77
2022-10-18T23:50:53.004Z,16.79
2022-10-18T23:53:23.070Z,16.74
2022-10-18T23:55:55.422Z,16.63
2022-10-18T23:58:25.555Z,16.44
